sensor_id;sensor_type;location;lat;lon;timestamp;P1;durP1;ratioP1;P2;durP2;ratioP2
3726;SDS011;1879;45.876;12.300;2022-07-06T00:00:17;3.13;;;2.83;;
3726;SDS011;1879;45.876;12.300;2022-07-06T00:02:46;3.97;;;3.40;;
3726;SDS011;1879;45.876;12.300;2022-07-06T00:05:14;6.70;;;3.90;;
3726;SDS011;1879;45.876;12.300;2022-07-06T00:07:42;4.70;;;3.53;;
3726;SDS011;1879;45.876;12.300;2022-07-06T00:10:09;4.43;;;3.63;;
3726;SDS011;1879;45.876;12.300;2022-07-06T00:12:37;5.40;;;3.93;;
3726;SDS011;1879;45.876;12.300;2022-07-06T00:15:04;6.17;;;3.40;;
3726;SDS011;1879;45.876;12.300;2022-07-06T00:17:32;4.10;;;3.10;;
3726;SDS011;1879;45.876;12.300;2022-07-06T00:20:05;5.67;;;3.63;;
3726;SDS011;1879;45.876;12.300;2022-07-06T00:22:33;8.23;;;4.40;;
3726;SDS011;1879;45.876;12.300;2022-07-06T00:25:01;4.33;;;3.93;;
3726;SDS011;1879;45.876;12.300;2022-07-06T00:27:29;4.30;;;3.90;;
3726;SDS011;1879;45.876;12.300;2022-07-06T00:29:56;5.20;;;3.83;;
3726;SDS011;1879;45.876;12.300;2022-07-06T00:32:24;4.33;;;3.70;;
3726;SDS011;1879;45.876;12.300;2022-07-06T00:34:57;3.93;;;3.60;;
3726;SDS011;1879;45.876;12.300;2022-07-06T00:37:26;4.00;;;3.50;;
3726;SDS011;1879;45.876;12.300;2022-07-06T00:39:54;3.73;;;3.40;;
3726;SDS011;1879;45.876;12.300;2022-07-06T00:42:21;3.23;;;2.90;;
3726;SDS011;1879;45.876;12.300;2022-07-06T00:44:49;4.30;;;3.60;;
3726;SDS011;1879;45.876;12.300;2022-07-06T00:47:16;3.50;;;3.20;;
3726;SDS011;1879;45.876;12.300;2022-07-06T00:49:44;3.90;;;3.60;;
3726;SDS011;1879;45.876;12.300;2022-07-06T00:52:30;4.30;;;3.17;;
3726;SDS011;1879;45.876;12.300;2022-07-06T00:54:57;3.27;;;2.97;;
3726;SDS011;1879;45.876;12.300;2022-07-06T00:57:27;4.93;;;3.60;;
3726;SDS011;1879;45.876;12.300;2022-07-06T00:59:55;3.43;;;2.53;;
3726;SDS011;1879;45.876;12.300;2022-07-06T01:02:23;3.57;;;3.23;;
3726;SDS011;1879;45.876;12.300;2022-07-06T01:04:50;3.27;;;2.80;;
3726;SDS011;1879;45.876;12.300;2022-07-06T01:07:17;4.60;;;3.10;;
3726;SDS011;1879;45.876;12.300;2022-07-06T01:09:46;3.17;;;2.90;;
3726;SDS011;1879;45.876;12.300;2022-07-06T01:12:13;4.50;;;3.50;;
3726;SDS011;1879;45.876;12.300;2022-07-06T01:14:40;4.87;;;3.40;;
3726;SDS011;1879;45.876;12.300;2022-07-06T01:17:08;4.30;;;3.10;;
3726;SDS011;1879;45.876;12.300;2022-07-06T01:19:36;3.87;;;3.57;;
3726;SDS011;1879;45.876;12.300;2022-07-06T01:22:04;4.20;;;3.73;;
3726;SDS011;1879;45.876;12.300;2022-07-06T01:24:31;5.17;;;3.60;;
3726;SDS011;1879;45.876;12.300;2022-07-06T01:27:01;5.17;;;3.80;;
3726;SDS011;1879;45.876;12.300;2022-07-06T01:29:29;5.17;;;3.80;;
3726;SDS011;1879;45.876;12.300;2022-07-06T01:31:56;3.93;;;3.40;;
3726;SDS011;1879;45.876;12.300;2022-07-06T01:34:23;5.90;;;3.50;;
3726;SDS011;1879;45.876;12.300;2022-07-06T01:36:51;3.70;;;3.40;;
3726;SDS011;1879;45.876;12.300;2022-07-06T01:39:19;4.00;;;3.60;;
3726;SDS011;1879;45.876;12.300;2022-07-06T01:41:47;4.10;;;3.60;;
3726;SDS011;1879;45.876;12.300;2022-07-06T01:44:14;3.73;;;3.37;;
3726;SDS011;1879;45.876;12.300;2022-07-06T01:46:41;4.53;;;3.57;;
3726;SDS011;1879;45.876;12.300;2022-07-06T01:49:08;4.50;;;3.00;;
3726;SDS011;1879;45.876;12.300;2022-07-06T01:51:35;3.80;;;3.50;;
3726;SDS011;1879;45.876;12.300;2022-07-06T01:54:02;4.10;;;3.50;;
3726;SDS011;1879;45.876;12.300;2022-07-06T01:56:30;3.90;;;3.60;;
3726;SDS011;1879;45.876;12.300;2022-07-06T01:58:57;3.70;;;3.40;;
3726;SDS011;1879;45.876;12.300;2022-07-06T02:01:24;3.60;;;2.93;;
3726;SDS011;1879;45.876;12.300;2022-07-06T02:03:51;5.17;;;2.70;;
3726;SDS011;1879;45.876;12.300;2022-07-06T02:06:18;4.27;;;2.80;;
3726;SDS011;1879;45.876;12.300;2022-07-06T02:08:45;3.80;;;3.50;;
3726;SDS011;1879;45.876;12.300;2022-07-06T02:11:13;3.30;;;3.00;;
3726;SDS011;1879;45.876;12.300;2022-07-06T02:13:41;2.93;;;2.63;;
3726;SDS011;1879;45.876;12.300;2022-07-06T02:16:08;3.90;;;3.40;;
3726;SDS011;1879;45.876;12.300;2022-07-06T02:18:36;11.60;;;3.27;;
3726;SDS011;1879;45.876;12.300;2022-07-06T02:21:03;3.10;;;2.90;;
3726;SDS011;1879;45.876;12.300;2022-07-06T02:23:30;3.30;;;2.90;;
3726;SDS011;1879;45.876;12.300;2022-07-06T02:25:57;4.43;;;2.80;;
3726;SDS011;1879;45.876;12.300;2022-07-06T02:28:24;3.37;;;3.07;;
3726;SDS011;1879;45.876;12.300;2022-07-06T02:30:53;4.33;;;2.97;;
3726;SDS011;1879;45.876;12.300;2022-07-06T02:33:20;3.97;;;3.10;;
3726;SDS011;1879;45.876;12.300;2022-07-06T02:35:47;2.67;;;2.47;;
3726;SDS011;1879;45.876;12.300;2022-07-06T02:38:14;3.20;;;2.80;;
3726;SDS011;1879;45.876;12.300;2022-07-06T02:40:41;4.23;;;2.90;;
3726;SDS011;1879;45.876;12.300;2022-07-06T02:43:08;3.10;;;2.80;;
3726;SDS011;1879;45.876;12.300;2022-07-06T02:45:35;3.20;;;2.90;;
3726;SDS011;1879;45.876;12.300;2022-07-06T02:48:04;3.33;;;2.70;;
3726;SDS011;1879;45.876;12.300;2022-07-06T02:50:31;3.27;;;2.97;;
3726;SDS011;1879;45.876;12.300;2022-07-06T02:52:59;3.40;;;3.20;;
3726;SDS011;1879;45.876;12.300;2022-07-06T02:55:26;4.40;;;2.77;;
3726;SDS011;1879;45.876;12.300;2022-07-06T02:57:54;4.20;;;3.43;;
3726;SDS011;1879;45.876;12.300;2022-07-06T03:00:21;3.13;;;2.43;;
3726;SDS011;1879;45.876;12.300;2022-07-06T03:02:48;3.50;;;3.20;;
3726;SDS011;1879;45.876;12.300;2022-07-06T03:05:16;2.90;;;2.70;;
3726;SDS011;1879;45.876;12.300;2022-07-06T03:07:43;3.53;;;3.23;;
3726;SDS011;1879;45.876;12.300;2022-07-06T03:10:10;3.20;;;2.90;;
3726;SDS011;1879;45.876;12.300;2022-07-06T03:12:37;4.23;;;3.47;;
3726;SDS011;1879;45.876;12.300;2022-07-06T03:15:05;3.97;;;2.63;;
3726;SDS011;1879;45.876;12.300;2022-07-06T03:17:34;3.33;;;2.70;;
3726;SDS011;1879;45.876;12.300;2022-07-06T03:20:02;3.17;;;2.67;;
3726;SDS011;1879;45.876;12.300;2022-07-06T03:22:31;3.43;;;2.63;;
3726;SDS011;1879;45.876;12.300;2022-07-06T03:24:58;3.03;;;2.73;;
3726;SDS011;1879;45.876;12.300;2022-07-06T03:27:25;3.10;;;2.80;;
3726;SDS011;1879;45.876;12.300;2022-07-06T03:29:52;5.03;;;3.00;;
3726;SDS011;1879;45.876;12.300;2022-07-06T03:32:19;3.13;;;2.63;;
3726;SDS011;1879;45.876;12.300;2022-07-06T03:34:46;4.40;;;2.83;;
3726;SDS011;1879;45.876;12.300;2022-07-06T03:37:15;3.93;;;2.60;;
3726;SDS011;1879;45.876;12.300;2022-07-06T03:39:44;2.80;;;2.60;;
3726;SDS011;1879;45.876;12.300;2022-07-06T03:42:11;2.80;;;2.60;;
3726;SDS011;1879;45.876;12.300;2022-07-06T03:44:38;3.87;;;2.70;;
3726;SDS011;1879;45.876;12.300;2022-07-06T03:47:05;3.37;;;2.93;;
3726;SDS011;1879;45.876;12.300;2022-07-06T03:49:32;3.00;;;2.80;;
3726;SDS011;1879;45.876;12.300;2022-07-06T03:51:59;3.53;;;3.23;;
3726;SDS011;1879;45.876;12.300;2022-07-06T03:54:26;3.77;;;3.47;;
3726;SDS011;1879;45.876;12.300;2022-07-06T03:56:54;3.10;;;2.90;;
3726;SDS011;1879;45.876;12.300;2022-07-06T03:59:21;3.73;;;2.60;;
3726;SDS011;1879;45.876;12.300;2022-07-06T04:01:48;3.23;;;2.83;;
3726;SDS011;1879;45.876;12.300;2022-07-06T04:04:15;2.60;;;2.40;;
3726;SDS011;1879;45.876;12.300;2022-07-06T04:06:42;3.00;;;2.47;;
3726;SDS011;1879;45.876;12.300;2022-07-06T04:09:09;3.40;;;3.10;;
3726;SDS011;1879;45.876;12.300;2022-07-06T04:11:36;2.80;;;2.60;;
3726;SDS011;1879;45.876;12.300;2022-07-06T04:14:05;2.50;;;2.30;;
3726;SDS011;1879;45.876;12.300;2022-07-06T04:16:32;2.73;;;2.53;;
3726;SDS011;1879;45.876;12.300;2022-07-06T04:18:59;3.63;;;2.80;;
3726;SDS011;1879;45.876;12.300;2022-07-06T04:21:26;2.90;;;2.70;;
3726;SDS011;1879;45.876;12.300;2022-07-06T04:23:53;4.57;;;2.97;;
3726;SDS011;1879;45.876;12.300;2022-07-06T04:26:20;2.63;;;2.43;;
3726;SDS011;1879;45.876;12.300;2022-07-06T04:28:47;3.23;;;2.37;;
3726;SDS011;1879;45.876;12.300;2022-07-06T04:31:16;2.80;;;2.33;;
3726;SDS011;1879;45.876;12.300;2022-07-06T04:33:43;3.37;;;2.47;;
3726;SDS011;1879;45.876;12.300;2022-07-06T04:36:10;2.70;;;2.50;;
3726;SDS011;1879;45.876;12.300;2022-07-06T04:38:37;2.47;;;2.27;;
3726;SDS011;1879;45.876;12.300;2022-07-06T04:41:04;4.20;;;2.57;;
3726;SDS011;1879;45.876;12.300;2022-07-06T04:43:31;2.77;;;2.57;;
3726;SDS011;1879;45.876;12.300;2022-07-06T04:45:58;2.70;;;2.37;;
3726;SDS011;1879;45.876;12.300;2022-07-06T04:48:27;2.40;;;2.20;;
3726;SDS011;1879;45.876;12.300;2022-07-06T04:50:54;5.20;;;2.37;;
3726;SDS011;1879;45.876;12.300;2022-07-06T04:53:21;2.77;;;2.57;;
3726;SDS011;1879;45.876;12.300;2022-07-06T04:55:49;2.40;;;2.20;;
3726;SDS011;1879;45.876;12.300;2022-07-06T04:58:16;2.30;;;2.10;;
3726;SDS011;1879;45.876;12.300;2022-07-06T05:00:43;2.70;;;2.50;;
3726;SDS011;1879;45.876;12.300;2022-07-06T05:03:10;2.43;;;2.23;;
3726;SDS011;1879;45.876;12.300;2022-07-06T05:05:38;2.20;;;2.00;;
3726;SDS011;1879;45.876;12.300;2022-07-06T05:08:08;2.57;;;2.13;;
3726;SDS011;1879;45.876;12.300;2022-07-06T05:10:35;2.50;;;2.30;;
3726;SDS011;1879;45.876;12.300;2022-07-06T05:13:02;2.37;;;1.90;;
3726;SDS011;1879;45.876;12.300;2022-07-06T05:15:29;2.60;;;2.40;;
3726;SDS011;1879;45.876;12.300;2022-07-06T05:17:56;2.40;;;2.20;;
3726;SDS011;1879;45.876;12.300;2022-07-06T05:20:23;2.60;;;2.40;;
3726;SDS011;1879;45.876;12.300;2022-07-06T05:22:51;2.23;;;2.03;;
3726;SDS011;1879;45.876;12.300;2022-07-06T05:25:18;2.40;;;2.20;;
3726;SDS011;1879;45.876;12.300;2022-07-06T05:27:46;3.00;;;2.70;;
3726;SDS011;1879;45.876;12.300;2022-07-06T05:30:13;2.37;;;2.17;;
3726;SDS011;1879;45.876;12.300;2022-07-06T05:32:41;2.60;;;2.33;;
3726;SDS011;1879;45.876;12.300;2022-07-06T05:35:08;3.60;;;2.30;;
3726;SDS011;1879;45.876;12.300;2022-07-06T05:37:35;2.97;;;2.77;;
3726;SDS011;1879;45.876;12.300;2022-07-06T05:40:04;2.87;;;2.67;;
3726;SDS011;1879;45.876;12.300;2022-07-06T05:42:31;2.17;;;1.97;;
3726;SDS011;1879;45.876;12.300;2022-07-06T05:44:58;2.90;;;2.10;;
3726;SDS011;1879;45.876;12.300;2022-07-06T05:47:26;5.57;;;2.33;;
3726;SDS011;1879;45.876;12.300;2022-07-06T05:50:07;2.80;;;2.50;;
3726;SDS011;1879;45.876;12.300;2022-07-06T05:52:41;2.70;;;2.50;;
3726;SDS011;1879;45.876;12.300;2022-07-06T05:55:11;2.40;;;2.20;;
3726;SDS011;1879;45.876;12.300;2022-07-06T05:57:38;2.63;;;2.37;;
3726;SDS011;1879;45.876;12.300;2022-07-06T06:00:06;2.57;;;2.37;;
3726;SDS011;1879;45.876;12.300;2022-07-06T06:02:38;4.03;;;2.40;;
3726;SDS011;1879;45.876;12.300;2022-07-06T06:05:06;2.53;;;2.33;;
3726;SDS011;1879;45.876;12.300;2022-07-06T06:07:34;3.17;;;2.50;;
3726;SDS011;1879;45.876;12.300;2022-07-06T06:10:03;2.67;;;2.47;;
3726;SDS011;1879;45.876;12.300;2022-07-06T06:12:32;4.20;;;2.60;;
3726;SDS011;1879;45.876;12.300;2022-07-06T06:14:59;2.30;;;2.07;;
3726;SDS011;1879;45.876;12.300;2022-07-06T06:17:26;3.33;;;2.53;;
3726;SDS011;1879;45.876;12.300;2022-07-06T06:19:53;2.50;;;2.30;;
3726;SDS011;1879;45.876;12.300;2022-07-06T06:22:24;2.50;;;2.30;;
3726;SDS011;1879;45.876;12.300;2022-07-06T06:24:51;2.47;;;2.27;;
3726;SDS011;1879;45.876;12.300;2022-07-06T06:27:18;2.10;;;1.90;;
3726;SDS011;1879;45.876;12.300;2022-07-06T06:29:46;2.73;;;2.47;;
3726;SDS011;1879;45.876;12.300;2022-07-06T06:32:13;2.33;;;1.80;;
3726;SDS011;1879;45.876;12.300;2022-07-06T06:34:40;2.60;;;2.40;;
3726;SDS011;1879;45.876;12.300;2022-07-06T06:37:07;2.50;;;2.30;;
3726;SDS011;1879;45.876;12.300;2022-07-06T06:39:34;2.27;;;2.07;;
3726;SDS011;1879;45.876;12.300;2022-07-06T06:42:02;2.70;;;2.50;;
3726;SDS011;1879;45.876;12.300;2022-07-06T06:44:29;2.43;;;2.10;;
3726;SDS011;1879;45.876;12.300;2022-07-06T06:46:57;2.97;;;2.37;;
3726;SDS011;1879;45.876;12.300;2022-07-06T06:49:25;2.30;;;2.10;;
3726;SDS011;1879;45.876;12.300;2022-07-06T06:51:52;2.20;;;2.00;;
3726;SDS011;1879;45.876;12.300;2022-07-06T06:54:19;2.93;;;2.73;;
3726;SDS011;1879;45.876;12.300;2022-07-06T06:56:46;4.03;;;2.20;;
3726;SDS011;1879;45.876;12.300;2022-07-06T06:59:13;2.50;;;2.30;;
3726;SDS011;1879;45.876;12.300;2022-07-06T07:01:40;2.30;;;2.10;;
3726;SDS011;1879;45.876;12.300;2022-07-06T07:04:08;2.50;;;2.30;;
3726;SDS011;1879;45.876;12.300;2022-07-06T07:06:36;2.70;;;2.50;;
3726;SDS011;1879;45.876;12.300;2022-07-06T07:09:04;2.40;;;2.10;;
3726;SDS011;1879;45.876;12.300;2022-07-06T07:11:31;2.47;;;2.27;;
3726;SDS011;1879;45.876;12.300;2022-07-06T07:13:58;3.70;;;2.60;;
3726;SDS011;1879;45.876;12.300;2022-07-06T07:16:25;2.57;;;2.37;;
3726;SDS011;1879;45.876;12.300;2022-07-06T07:18:52;3.67;;;2.40;;
3726;SDS011;1879;45.876;12.300;2022-07-06T07:21:21;3.43;;;2.17;;
3726;SDS011;1879;45.876;12.300;2022-07-06T07:23:48;4.43;;;2.30;;
3726;SDS011;1879;45.876;12.300;2022-07-06T07:26:15;2.13;;;2.03;;
3726;SDS011;1879;45.876;12.300;2022-07-06T07:28:43;2.73;;;2.30;;
3726;SDS011;1879;45.876;12.300;2022-07-06T07:31:10;2.50;;;2.10;;
3726;SDS011;1879;45.876;12.300;2022-07-06T07:33:37;2.30;;;2.00;;
3726;SDS011;1879;45.876;12.300;2022-07-06T07:36:04;2.60;;;2.17;;
3726;SDS011;1879;45.876;12.300;2022-07-06T07:38:33;2.50;;;2.30;;
3726;SDS011;1879;45.876;12.300;2022-07-06T07:41:00;2.10;;;1.90;;
3726;SDS011;1879;45.876;12.300;2022-07-06T07:43:27;2.73;;;2.10;;
3726;SDS011;1879;45.876;12.300;2022-07-06T07:45:54;2.43;;;1.97;;
3726;SDS011;1879;45.876;12.300;2022-07-06T07:48:21;2.70;;;2.23;;
3726;SDS011;1879;45.876;12.300;2022-07-06T07:50:48;2.67;;;2.00;;
3726;SDS011;1879;45.876;12.300;2022-07-06T07:53:15;2.30;;;2.03;;
3726;SDS011;1879;45.876;12.300;2022-07-06T07:55:43;2.47;;;2.27;;
3726;SDS011;1879;45.876;12.300;2022-07-06T07:58:10;2.23;;;2.03;;
3726;SDS011;1879;45.876;12.300;2022-07-06T08:00:37;2.33;;;2.13;;
3726;SDS011;1879;45.876;12.300;2022-07-06T08:03:05;2.33;;;2.00;;
3726;SDS011;1879;45.876;12.300;2022-07-06T08:05:31;2.67;;;2.10;;
3726;SDS011;1879;45.876;12.300;2022-07-06T08:07:59;1.90;;;1.80;;
3726;SDS011;1879;45.876;12.300;2022-07-06T08:10:26;2.70;;;2.33;;
3726;SDS011;1879;45.876;12.300;2022-07-06T08:12:54;2.30;;;1.93;;
3726;SDS011;1879;45.876;12.300;2022-07-06T08:15:21;3.00;;;2.10;;
3726;SDS011;1879;45.876;12.300;2022-07-06T08:17:50;2.13;;;1.83;;
3726;SDS011;1879;45.876;12.300;2022-07-06T08:20:17;3.90;;;2.00;;
3726;SDS011;1879;45.876;12.300;2022-07-06T08:22:45;2.00;;;1.90;;
3726;SDS011;1879;45.876;12.300;2022-07-06T08:25:12;3.73;;;1.90;;
3726;SDS011;1879;45.876;12.300;2022-07-06T08:27:39;2.33;;;2.13;;
3726;SDS011;1879;45.876;12.300;2022-07-06T08:30:09;2.00;;;1.90;;
3726;SDS011;1879;45.876;12.300;2022-07-06T08:32:37;2.30;;;2.10;;
3726;SDS011;1879;45.876;12.300;2022-07-06T08:35:05;1.90;;;1.80;;
3726;SDS011;1879;45.876;12.300;2022-07-06T08:37:32;3.30;;;2.50;;
3726;SDS011;1879;45.876;12.300;2022-07-06T08:39:59;2.37;;;2.17;;
3726;SDS011;1879;45.876;12.300;2022-07-06T08:42:33;2.43;;;1.90;;
3726;SDS011;1879;45.876;12.300;2022-07-06T08:45:03;2.27;;;2.07;;
3726;SDS011;1879;45.876;12.300;2022-07-06T08:47:33;3.00;;;2.33;;
3726;SDS011;1879;45.876;12.300;2022-07-06T08:50:02;2.30;;;2.10;;
3726;SDS011;1879;45.876;12.300;2022-07-06T08:52:30;2.03;;;1.93;;
3726;SDS011;1879;45.876;12.300;2022-07-06T08:54:57;1.80;;;1.67;;
3726;SDS011;1879;45.876;12.300;2022-07-06T08:57:25;2.07;;;1.87;;
3726;SDS011;1879;45.876;12.300;2022-07-06T08:59:52;1.67;;;1.57;;
3726;SDS011;1879;45.876;12.300;2022-07-06T09:02:19;1.97;;;1.70;;
3726;SDS011;1879;45.876;12.300;2022-07-06T09:04:52;1.63;;;1.50;;
3726;SDS011;1879;45.876;12.300;2022-07-06T09:07:21;2.10;;;2.00;;
3726;SDS011;1879;45.876;12.300;2022-07-06T09:09:49;1.87;;;1.77;;
3726;SDS011;1879;45.876;12.300;2022-07-06T09:12:17;2.10;;;1.90;;
3726;SDS011;1879;45.876;12.300;2022-07-06T09:14:46;2.37;;;1.80;;
3726;SDS011;1879;45.876;12.300;2022-07-06T09:17:14;1.80;;;1.70;;
3726;SDS011;1879;45.876;12.300;2022-07-06T09:19:41;2.00;;;1.90;;
3726;SDS011;1879;45.876;12.300;2022-07-06T09:22:12;2.30;;;2.10;;
3726;SDS011;1879;45.876;12.300;2022-07-06T09:24:51;1.60;;;1.50;;
3726;SDS011;1879;45.876;12.300;2022-07-06T09:27:19;2.07;;;1.97;;
3726;SDS011;1879;45.876;12.300;2022-07-06T09:29:48;1.70;;;1.60;;
3726;SDS011;1879;45.876;12.300;2022-07-06T09:32:15;2.03;;;1.93;;
3726;SDS011;1879;45.876;12.300;2022-07-06T09:34:48;2.17;;;1.97;;
3726;SDS011;1879;45.876;12.300;2022-07-06T09:37:17;2.10;;;1.70;;
3726;SDS011;1879;45.876;12.300;2022-07-06T09:39:44;1.93;;;1.83;;
3726;SDS011;1879;45.876;12.300;2022-07-06T09:42:11;2.23;;;2.00;;
3726;SDS011;1879;45.876;12.300;2022-07-06T09:44:39;2.53;;;2.33;;
3726;SDS011;1879;45.876;12.300;2022-07-06T09:47:07;2.30;;;1.90;;
3726;SDS011;1879;45.876;12.300;2022-07-06T09:49:36;2.93;;;2.50;;
3726;SDS011;1879;45.876;12.300;2022-07-06T09:52:05;2.43;;;2.20;;
3726;SDS011;1879;45.876;12.300;2022-07-06T09:54:35;2.30;;;2.10;;
3726;SDS011;1879;45.876;12.300;2022-07-06T09:57:04;2.77;;;2.00;;
3726;SDS011;1879;45.876;12.300;2022-07-06T09:59:32;3.33;;;2.23;;
3726;SDS011;1879;45.876;12.300;2022-07-06T10:02:00;2.73;;;2.10;;
3726;SDS011;1879;45.876;12.300;2022-07-06T10:04:29;2.20;;;2.00;;
3726;SDS011;1879;45.876;12.300;2022-07-06T10:06:57;2.30;;;1.70;;
3726;SDS011;1879;45.876;12.300;2022-07-06T10:09:25;3.10;;;2.00;;
3726;SDS011;1879;45.876;12.300;2022-07-06T10:11:55;1.70;;;1.60;;
3726;SDS011;1879;45.876;12.300;2022-07-06T10:14:24;1.60;;;1.50;;
3726;SDS011;1879;45.876;12.300;2022-07-06T10:16:53;2.37;;;2.17;;
3726;SDS011;1879;45.876;12.300;2022-07-06T10:19:22;2.20;;;2.00;;
3726;SDS011;1879;45.876;12.300;2022-07-06T10:21:49;2.07;;;1.97;;
3726;SDS011;1879;45.876;12.300;2022-07-06T10:24:17;2.80;;;2.20;;
3726;SDS011;1879;45.876;12.300;2022-07-06T10:26:46;1.93;;;1.80;;
3726;SDS011;1879;45.876;12.300;2022-07-06T10:29:15;2.37;;;2.17;;
3726;SDS011;1879;45.876;12.300;2022-07-06T10:31:43;2.43;;;2.23;;
3726;SDS011;1879;45.876;12.300;2022-07-06T10:34:13;3.00;;;2.20;;
3726;SDS011;1879;45.876;12.300;2022-07-06T10:36:43;2.13;;;1.83;;
3726;SDS011;1879;45.876;12.300;2022-07-06T10:39:15;2.20;;;2.00;;
3726;SDS011;1879;45.876;12.300;2022-07-06T10:45:08;2.37;;;2.17;;
3726;SDS011;1879;45.876;12.300;2022-07-06T10:47:37;2.40;;;2.13;;
3726;SDS011;1879;45.876;12.300;2022-07-06T10:50:04;1.97;;;1.87;;
3726;SDS011;1879;45.876;12.300;2022-07-06T10:55:32;2.87;;;2.10;;
3726;SDS011;1879;45.876;12.300;2022-07-06T10:58:02;2.10;;;2.00;;
3726;SDS011;1879;45.876;12.300;2022-07-06T11:03:35;2.07;;;1.97;;
3726;SDS011;1879;45.876;12.300;2022-07-06T11:06:08;2.30;;;2.00;;
3726;SDS011;1879;45.876;12.300;2022-07-06T11:08:56;2.30;;;2.10;;
3726;SDS011;1879;45.876;12.300;2022-07-06T11:11:25;2.53;;;2.33;;
3726;SDS011;1879;45.876;12.300;2022-07-06T11:14:04;2.00;;;1.90;;
3726;SDS011;1879;45.876;12.300;2022-07-06T11:16:34;2.30;;;2.07;;
3726;SDS011;1879;45.876;12.300;2022-07-06T11:19:10;1.97;;;1.80;;
3726;SDS011;1879;45.876;12.300;2022-07-06T11:21:38;2.20;;;1.83;;
3726;SDS011;1879;45.876;12.300;2022-07-06T11:24:08;1.80;;;1.70;;
3726;SDS011;1879;45.876;12.300;2022-07-06T11:26:37;1.90;;;1.63;;
3726;SDS011;1879;45.876;12.300;2022-07-06T11:29:06;2.87;;;1.67;;
3726;SDS011;1879;45.876;12.300;2022-07-06T11:31:36;2.27;;;1.80;;
3726;SDS011;1879;45.876;12.300;2022-07-06T11:34:05;3.30;;;1.90;;
3726;SDS011;1879;45.876;12.300;2022-07-06T11:36:33;2.00;;;1.33;;
3726;SDS011;1879;45.876;12.300;2022-07-06T11:39:00;1.40;;;1.30;;
3726;SDS011;1879;45.876;12.300;2022-07-06T11:41:27;1.97;;;1.83;;
3726;SDS011;1879;45.876;12.300;2022-07-06T11:43:54;1.83;;;1.70;;
3726;SDS011;1879;45.876;12.300;2022-07-06T11:46:22;2.07;;;1.67;;
3726;SDS011;1879;45.876;12.300;2022-07-06T11:48:53;3.00;;;1.77;;
3726;SDS011;1879;45.876;12.300;2022-07-06T11:51:21;3.20;;;1.60;;
3726;SDS011;1879;45.876;12.300;2022-07-06T11:53:50;1.70;;;1.57;;
3726;SDS011;1879;45.876;12.300;2022-07-06T11:56:18;1.97;;;1.60;;
3726;SDS011;1879;45.876;12.300;2022-07-06T11:58:48;2.57;;;1.53;;
3726;SDS011;1879;45.876;12.300;2022-07-06T12:01:16;1.50;;;1.40;;
3726;SDS011;1879;45.876;12.300;2022-07-06T12:03:43;1.50;;;1.40;;
3726;SDS011;1879;45.876;12.300;2022-07-06T12:06:16;3.13;;;1.70;;
3726;SDS011;1879;45.876;12.300;2022-07-06T12:08:45;2.87;;;1.60;;
3726;SDS011;1879;45.876;12.300;2022-07-06T12:11:18;1.60;;;1.50;;
3726;SDS011;1879;45.876;12.300;2022-07-06T12:13:46;1.80;;;1.70;;
3726;SDS011;1879;45.876;12.300;2022-07-06T12:16:14;1.87;;;1.37;;
3726;SDS011;1879;45.876;12.300;2022-07-06T12:18:42;1.73;;;1.30;;
3726;SDS011;1879;45.876;12.300;2022-07-06T12:21:11;1.37;;;1.27;;
3726;SDS011;1879;45.876;12.300;2022-07-06T12:23:44;2.03;;;1.70;;
3726;SDS011;1879;45.876;12.300;2022-07-06T12:26:12;1.50;;;1.33;;
3726;SDS011;1879;45.876;12.300;2022-07-06T12:28:41;1.60;;;1.30;;
3726;SDS011;1879;45.876;12.300;2022-07-06T12:31:09;2.00;;;1.43;;
3726;SDS011;1879;45.876;12.300;2022-07-06T12:33:37;2.43;;;1.70;;
3726;SDS011;1879;45.876;12.300;2022-07-06T12:36:11;1.70;;;1.53;;
3726;SDS011;1879;45.876;12.300;2022-07-06T12:38:47;2.23;;;1.60;;
3726;SDS011;1879;45.876;12.300;2022-07-06T12:41:30;1.47;;;1.37;;
3726;SDS011;1879;45.876;12.300;2022-07-06T12:44:03;1.60;;;1.50;;
3726;SDS011;1879;45.876;12.300;2022-07-06T12:46:33;1.50;;;1.40;;
3726;SDS011;1879;45.876;12.300;2022-07-06T12:49:02;1.50;;;1.40;;
3726;SDS011;1879;45.876;12.300;2022-07-06T12:51:51;2.07;;;1.60;;
3726;SDS011;1879;45.876;12.300;2022-07-06T12:54:25;2.13;;;1.70;;
3726;SDS011;1879;45.876;12.300;2022-07-06T12:57:01;1.60;;;1.50;;
3726;SDS011;1879;45.876;12.300;2022-07-06T12:59:34;1.83;;;1.60;;
3726;SDS011;1879;45.876;12.300;2022-07-06T13:02:03;1.97;;;1.43;;
3726;SDS011;1879;45.876;12.300;2022-07-06T13:04:31;3.17;;;1.30;;
3726;SDS011;1879;45.876;12.300;2022-07-06T13:06:58;1.97;;;1.70;;
3726;SDS011;1879;45.876;12.300;2022-07-06T13:09:28;1.40;;;1.30;;
3726;SDS011;1879;45.876;12.300;2022-07-06T13:11:55;1.73;;;1.63;;
3726;SDS011;1879;45.876;12.300;2022-07-06T13:14:23;2.70;;;1.60;;
3726;SDS011;1879;45.876;12.300;2022-07-06T13:16:53;1.60;;;1.50;;
3726;SDS011;1879;45.876;12.300;2022-07-06T13:19:20;1.30;;;1.20;;
3726;SDS011;1879;45.876;12.300;2022-07-06T13:21:47;1.60;;;1.50;;
3726;SDS011;1879;45.876;12.300;2022-07-06T13:24:14;1.80;;;1.70;;
3726;SDS011;1879;45.876;12.300;2022-07-06T13:26:43;1.87;;;1.50;;
3726;SDS011;1879;45.876;12.300;2022-07-06T13:29:10;1.53;;;1.43;;
3726;SDS011;1879;45.876;12.300;2022-07-06T13:31:37;1.70;;;1.60;;
3726;SDS011;1879;45.876;12.300;2022-07-06T13:34:06;1.60;;;1.50;;
3726;SDS011;1879;45.876;12.300;2022-07-06T13:36:34;2.17;;;1.80;;
3726;SDS011;1879;45.876;12.300;2022-07-06T13:39:02;2.17;;;1.33;;
3726;SDS011;1879;45.876;12.300;2022-07-06T13:41:29;1.77;;;1.67;;
3726;SDS011;1879;45.876;12.300;2022-07-06T13:43:58;1.40;;;1.30;;
3726;SDS011;1879;45.876;12.300;2022-07-06T13:46:26;1.60;;;1.50;;
3726;SDS011;1879;45.876;12.300;2022-07-06T13:48:53;2.13;;;1.67;;
3726;SDS011;1879;45.876;12.300;2022-07-06T13:51:21;1.57;;;1.43;;
3726;SDS011;1879;45.876;12.300;2022-07-06T13:53:49;1.47;;;1.37;;
3726;SDS011;1879;45.876;12.300;2022-07-06T13:56:16;2.40;;;1.70;;
3726;SDS011;1879;45.876;12.300;2022-07-06T13:58:43;2.60;;;2.00;;
3726;SDS011;1879;45.876;12.300;2022-07-06T14:01:12;1.47;;;1.37;;
3726;SDS011;1879;45.876;12.300;2022-07-06T14:03:40;1.93;;;1.73;;
3726;SDS011;1879;45.876;12.300;2022-07-06T14:06:10;1.77;;;1.67;;
3726;SDS011;1879;45.876;12.300;2022-07-06T14:08:38;4.03;;;1.97;;
3726;SDS011;1879;45.876;12.300;2022-07-06T14:11:08;2.00;;;1.80;;
3726;SDS011;1879;45.876;12.300;2022-07-06T14:13:35;3.23;;;1.80;;
3726;SDS011;1879;45.876;12.300;2022-07-06T14:16:05;2.33;;;1.60;;
3726;SDS011;1879;45.876;12.300;2022-07-06T14:18:34;1.87;;;1.77;;
3726;SDS011;1879;45.876;12.300;2022-07-06T14:21:01;2.00;;;1.80;;
3726;SDS011;1879;45.876;12.300;2022-07-06T14:23:30;1.50;;;1.40;;
3726;SDS011;1879;45.876;12.300;2022-07-06T14:25:57;1.67;;;1.57;;
3726;SDS011;1879;45.876;12.300;2022-07-06T14:28:24;1.60;;;1.50;;
3726;SDS011;1879;45.876;12.300;2022-07-06T14:30:51;1.50;;;1.40;;
3726;SDS011;1879;45.876;12.300;2022-07-06T14:33:18;1.50;;;1.40;;
3726;SDS011;1879;45.876;12.300;2022-07-06T14:35:47;2.27;;;1.63;;
3726;SDS011;1879;45.876;12.300;2022-07-06T14:38:17;1.60;;;1.50;;
3726;SDS011;1879;45.876;12.300;2022-07-06T14:40:45;2.70;;;1.53;;
3726;SDS011;1879;45.876;12.300;2022-07-06T14:43:14;1.73;;;1.60;;
3726;SDS011;1879;45.876;12.300;2022-07-06T14:45:42;1.87;;;1.77;;
3726;SDS011;1879;45.876;12.300;2022-07-06T14:48:10;2.27;;;1.90;;
3726;SDS011;1879;45.876;12.300;2022-07-06T14:50:37;2.13;;;1.70;;
3726;SDS011;1879;45.876;12.300;2022-07-06T14:53:06;2.53;;;1.67;;
3726;SDS011;1879;45.876;12.300;2022-07-06T14:55:33;1.33;;;1.23;;
3726;SDS011;1879;45.876;12.300;2022-07-06T14:58:00;2.00;;;1.67;;
3726;SDS011;1879;45.876;12.300;2022-07-06T15:00:28;1.77;;;1.53;;
3726;SDS011;1879;45.876;12.300;2022-07-06T15:02:55;2.63;;;1.77;;
3726;SDS011;1879;45.876;12.300;2022-07-06T15:05:22;1.70;;;1.60;;
3726;SDS011;1879;45.876;12.300;2022-07-06T15:07:49;1.63;;;1.50;;
3726;SDS011;1879;45.876;12.300;2022-07-06T15:10:18;1.27;;;1.17;;
3726;SDS011;1879;45.876;12.300;2022-07-06T15:12:45;1.50;;;1.40;;
3726;SDS011;1879;45.876;12.300;2022-07-06T15:15:12;4.03;;;1.47;;